NWS4616 LYTV-LGKR
Flight info
| Callsign | NWS4616 |
|---|---|
| Flight time | 0h 41m |
| Altitude | 19000 |
| Route | LASTI L187 RODON N732 PITAS |
| Aircraft | A21N/M-SDE3FGHIRWY/LB1 |
Departure
| Time | 2026-04-27 22:31 |
|---|---|
| Airport | Tivat Airport (LYTV) |
Arrival
| Time | 2026-04-27 23:13 |
|---|---|
| Airport | Corfu Ioannis Kapodistrias International Airport (LGKR) |
| Time | Latitude | Longitude | Altitude | Speed | Heading |
|---|---|---|---|---|---|
| 2026-04-27 22:00 | 42.41251 | 18.71673 | 9 ft | 0 kts | 101° |
| 2026-04-27 22:25 | 42.41249 | 18.71677 | 8 ft | 1 kts | 124° |
| 2026-04-27 22:25 | 42.41219 | 18.71693 | 8 ft | 6 kts | 174° |
| 2026-04-27 22:26 | 42.41172 | 18.71697 | 7 ft | 6 kts | 175° |
| 2026-04-27 22:26 | 42.41121 | 18.71740 | 8 ft | 10 kts | 137° |
| 2026-04-27 22:26 | 42.41058 | 18.71814 | 9 ft | 11 kts | 140° |
| 2026-04-27 22:26 | 42.40979 | 18.71825 | 9 ft | 14 kts | 215° |
| 2026-04-27 22:27 | 42.40878 | 18.71831 | 10 ft | 16 kts | 132° |
| 2026-04-27 22:27 | 42.40788 | 18.71944 | 12 ft | 18 kts | 138° |
| 2026-04-27 22:27 | 42.40685 | 18.72068 | 13 ft | 21 kts | 138° |
| 2026-04-27 22:27 | 42.40567 | 18.72205 | 13 ft | 23 kts | 139° |
| 2026-04-27 22:28 | 42.40439 | 18.72356 | 13 ft | 25 kts | 139° |
| 2026-04-27 22:28 | 42.40298 | 18.72522 | 12 ft | 27 kts | 139° |
| 2026-04-27 22:28 | 42.40146 | 18.72701 | 10 ft | 30 kts | 139° |
| 2026-04-27 22:28 | 42.39985 | 18.72892 | 10 ft | 31 kts | 139° |
| 2026-04-27 22:29 | 42.39829 | 18.73076 | 11 ft | 23 kts | 139° |
| 2026-04-27 22:29 | 42.39727 | 18.73197 | 13 ft | 17 kts | 139° |
| 2026-04-27 22:29 | 42.39658 | 18.73251 | 14 ft | 8 kts | 173° |
| 2026-04-27 22:29 | 42.39610 | 18.73289 | 14 ft | 9 kts | 78° |
| 2026-04-27 22:30 | 42.39664 | 18.73277 | 15 ft | 9 kts | 321° |
| 2026-04-27 22:30 | 42.39715 | 18.73218 | 13 ft | 11 kts | 318° |
| 2026-04-27 22:30 | 42.39788 | 18.73128 | 12 ft | 16 kts | 317° |
| 2026-04-27 22:30 | 42.40039 | 18.72830 | 10 ft | 82 kts | 318° |
| 2026-04-27 22:31 | 42.40635 | 18.72129 | 13 ft | 142 kts | 319° |
| 2026-04-27 22:31 | 42.41457 | 18.71149 | 346 ft | 160 kts | 319° |
| 2026-04-27 22:31 | 42.42259 | 18.70199 | 1047 ft | 151 kts | 319° |
| 2026-04-27 22:31 | 42.42882 | 18.69037 | 1456 ft | 165 kts | 281° |
| 2026-04-27 22:32 | 42.42620 | 18.67539 | 1907 ft | 175 kts | 231° |
| 2026-04-27 22:32 | 42.41617 | 18.66519 | 2263 ft | 187 kts | 210° |
| 2026-04-27 22:32 | 42.40451 | 18.65591 | 2584 ft | 202 kts | 211° |
| 2026-04-27 22:32 | 42.39219 | 18.64546 | 2914 ft | 219 kts | 213° |
| 2026-04-27 22:33 | 42.37894 | 18.63365 | 3190 ft | 239 kts | 214° |
| 2026-04-27 22:33 | 42.36478 | 18.62067 | 3787 ft | 246 kts | 214° |
| 2026-04-27 22:33 | 42.35078 | 18.60770 | 4498 ft | 247 kts | 215° |
| 2026-04-27 22:33 | 42.33664 | 18.59467 | 5187 ft | 250 kts | 212° |
| 2026-04-27 22:34 | 42.32060 | 18.58620 | 5781 ft | 253 kts | 186° |
| 2026-04-27 22:34 | 42.30293 | 18.58745 | 6443 ft | 255 kts | 173° |
| 2026-04-27 22:34 | 42.28547 | 18.59034 | 7124 ft | 258 kts | 173° |
| 2026-04-27 22:34 | 42.26747 | 18.59331 | 7810 ft | 261 kts | 173° |
| 2026-04-27 22:35 | 42.24937 | 18.59629 | 8508 ft | 264 kts | 172° |
| 2026-04-27 22:35 | 42.23198 | 18.60337 | 9129 ft | 266 kts | 146° |
| 2026-04-27 22:35 | 42.21927 | 18.62123 | 9640 ft | 272 kts | 120° |
| 2026-04-27 22:35 | 42.20948 | 18.64399 | 10018 ft | 286 kts | 119° |
| 2026-04-27 22:36 | 42.19930 | 18.66740 | 10572 ft | 293 kts | 120° |
| 2026-04-27 22:36 | 42.18888 | 18.69086 | 11240 ft | 296 kts | 120° |
| 2026-04-27 22:36 | 42.17820 | 18.71461 | 11843 ft | 299 kts | 120° |
| 2026-04-27 22:36 | 42.16734 | 18.73857 | 12432 ft | 303 kts | 120° |
| 2026-04-27 22:37 | 42.15627 | 18.76291 | 13001 ft | 307 kts | 120° |
| 2026-04-27 22:37 | 42.14506 | 18.78750 | 13585 ft | 311 kts | 120° |
| 2026-04-27 22:37 | 42.13367 | 18.81247 | 14157 ft | 314 kts | 120° |
| 2026-04-27 22:37 | 42.12213 | 18.83776 | 14759 ft | 317 kts | 120° |
| 2026-04-27 22:38 | 42.11052 | 18.86284 | 15328 ft | 320 kts | 123° |
| 2026-04-27 22:38 | 42.09460 | 18.88431 | 15823 ft | 326 kts | 148° |
| 2026-04-27 22:38 | 42.07359 | 18.89608 | 16149 ft | 335 kts | 166° |
| 2026-04-27 22:38 | 42.05058 | 18.90357 | 16419 ft | 348 kts | 167° |
| 2026-04-27 22:39 | 42.02663 | 18.91111 | 16664 ft | 360 kts | 167° |
| 2026-04-27 22:39 | 42.00165 | 18.91912 | 16874 ft | 373 kts | 167° |
| 2026-04-27 22:39 | 41.97597 | 18.92751 | 17117 ft | 385 kts | 166° |
| 2026-04-27 22:39 | 41.94978 | 18.93618 | 17326 ft | 396 kts | 166° |
| 2026-04-27 22:40 | 41.92267 | 18.94523 | 17529 ft | 407 kts | 166° |
| 2026-04-27 22:40 | 41.89508 | 18.95447 | 17875 ft | 413 kts | 166° |
| 2026-04-27 22:40 | 41.86716 | 18.96383 | 18340 ft | 415 kts | 166° |
| 2026-04-27 22:40 | 41.83879 | 18.97334 | 18798 ft | 417 kts | 166° |
| 2026-04-27 22:41 | 41.81079 | 18.98272 | 19041 ft | 420 kts | 166° |
| 2026-04-27 22:41 | 41.78241 | 18.99223 | 19049 ft | 419 kts | 166° |
| 2026-04-27 22:41 | 41.75410 | 19.00171 | 19054 ft | 419 kts | 166° |
| 2026-04-27 22:41 | 41.72543 | 19.01129 | 19051 ft | 419 kts | 166° |
| 2026-04-27 22:42 | 41.69743 | 19.02064 | 19051 ft | 419 kts | 166° |
| 2026-04-27 22:42 | 41.66888 | 19.03017 | 19051 ft | 420 kts | 166° |
| 2026-04-27 22:42 | 41.64075 | 19.03953 | 19052 ft | 420 kts | 166° |
| 2026-04-27 22:42 | 41.61223 | 19.04903 | 19053 ft | 420 kts | 166° |
| 2026-04-27 22:43 | 41.58381 | 19.05847 | 19054 ft | 421 kts | 166° |
| 2026-04-27 22:43 | 41.55559 | 19.06785 | 19048 ft | 421 kts | 166° |
| 2026-04-27 22:43 | 41.52690 | 19.07737 | 19050 ft | 421 kts | 166° |
| 2026-04-27 22:43 | 41.49861 | 19.08675 | 19052 ft | 421 kts | 166° |
| 2026-04-27 22:44 | 41.47030 | 19.09647 | 19058 ft | 421 kts | 164° |
| 2026-04-27 22:44 | 41.44229 | 19.10805 | 19057 ft | 421 kts | 161° |
| 2026-04-27 22:44 | 41.41503 | 19.12120 | 19058 ft | 421 kts | 160° |
| 2026-04-27 22:44 | 41.38752 | 19.13470 | 19053 ft | 421 kts | 160° |
| 2026-04-27 22:45 | 41.35990 | 19.14824 | 19059 ft | 421 kts | 160° |
| 2026-04-27 22:45 | 41.33249 | 19.16166 | 19058 ft | 421 kts | 160° |
| 2026-04-27 22:45 | 41.30479 | 19.17519 | 19054 ft | 421 kts | 160° |
| 2026-04-27 22:45 | 41.27755 | 19.18848 | 19055 ft | 421 kts | 160° |
| 2026-04-27 22:46 | 41.24992 | 19.20194 | 19061 ft | 421 kts | 160° |
| 2026-04-27 22:46 | 41.22257 | 19.21525 | 19060 ft | 421 kts | 160° |
| 2026-04-27 22:46 | 41.19497 | 19.22866 | 19065 ft | 421 kts | 160° |
| 2026-04-27 22:46 | 41.16739 | 19.24206 | 19062 ft | 421 kts | 160° |
| 2026-04-27 22:47 | 41.13980 | 19.25544 | 19060 ft | 421 kts | 160° |
| 2026-04-27 22:47 | 41.11232 | 19.26876 | 19057 ft | 422 kts | 160° |
| 2026-04-27 22:47 | 41.08460 | 19.28220 | 19054 ft | 421 kts | 160° |
| 2026-04-27 22:47 | 41.05720 | 19.29546 | 19057 ft | 421 kts | 160° |
| 2026-04-27 22:48 | 41.02974 | 19.30874 | 19065 ft | 421 kts | 160° |
| 2026-04-27 22:48 | 41.00232 | 19.32199 | 19063 ft | 421 kts | 160° |
| 2026-04-27 22:48 | 40.97448 | 19.33543 | 19062 ft | 421 kts | 160° |
| 2026-04-27 22:48 | 40.94703 | 19.34867 | 19059 ft | 421 kts | 160° |
| 2026-04-27 22:49 | 40.91975 | 19.36181 | 19051 ft | 421 kts | 160° |
| 2026-04-27 22:49 | 40.89206 | 19.37514 | 19062 ft | 421 kts | 160° |
| 2026-04-27 22:49 | 40.86462 | 19.38832 | 19054 ft | 421 kts | 160° |
| 2026-04-27 22:49 | 40.83699 | 19.40160 | 19058 ft | 421 kts | 160° |
| 2026-04-27 22:50 | 40.80938 | 19.41485 | 19061 ft | 422 kts | 160° |
| 2026-04-27 22:50 | 40.78188 | 19.42804 | 19061 ft | 421 kts | 160° |
| 2026-04-27 22:50 | 40.75419 | 19.44131 | 19061 ft | 421 kts | 160° |
| 2026-04-27 22:50 | 40.72671 | 19.45447 | 19058 ft | 421 kts | 160° |
| 2026-04-27 22:51 | 40.69905 | 19.46770 | 19062 ft | 422 kts | 160° |
| 2026-04-27 22:51 | 40.67133 | 19.48095 | 19061 ft | 422 kts | 160° |
| 2026-04-27 22:51 | 40.64369 | 19.49414 | 19058 ft | 422 kts | 160° |
| 2026-04-27 22:51 | 40.61611 | 19.50730 | 19068 ft | 422 kts | 160° |
| 2026-04-27 22:52 | 40.58854 | 19.52043 | 19062 ft | 422 kts | 160° |
| 2026-04-27 22:52 | 40.56097 | 19.53356 | 19073 ft | 422 kts | 160° |
| 2026-04-27 22:52 | 40.53323 | 19.54676 | 19064 ft | 422 kts | 160° |
| 2026-04-27 22:52 | 40.50571 | 19.55984 | 19066 ft | 422 kts | 160° |
| 2026-04-27 22:53 | 40.47808 | 19.57296 | 19059 ft | 422 kts | 160° |
| 2026-04-27 22:53 | 40.45038 | 19.58608 | 19065 ft | 422 kts | 160° |
| 2026-04-27 22:53 | 40.42268 | 19.59921 | 19069 ft | 422 kts | 160° |
| 2026-04-27 22:53 | 40.39495 | 19.61232 | 19074 ft | 422 kts | 160° |
| 2026-04-27 22:54 | 40.36739 | 19.62535 | 19080 ft | 423 kts | 160° |
| 2026-04-27 22:54 | 40.33976 | 19.63840 | 19085 ft | 423 kts | 160° |
| 2026-04-27 22:54 | 40.31179 | 19.65161 | 19096 ft | 423 kts | 160° |
| 2026-04-27 22:54 | 40.28427 | 19.66459 | 19096 ft | 423 kts | 160° |
| 2026-04-27 22:55 | 40.25666 | 19.67759 | 19099 ft | 423 kts | 160° |
| 2026-04-27 22:55 | 40.22893 | 19.69064 | 19108 ft | 423 kts | 160° |
| 2026-04-27 22:55 | 40.20122 | 19.70367 | 19107 ft | 422 kts | 160° |
| 2026-04-27 22:55 | 40.17372 | 19.71658 | 18976 ft | 422 kts | 160° |
| 2026-04-27 22:56 | 40.14613 | 19.72952 | 18721 ft | 420 kts | 160° |
| 2026-04-27 22:56 | 40.11848 | 19.74249 | 18463 ft | 418 kts | 160° |
| 2026-04-27 22:56 | 40.09124 | 19.75525 | 18218 ft | 416 kts | 160° |
| 2026-04-27 22:56 | 40.06401 | 19.76800 | 17955 ft | 414 kts | 160° |
| 2026-04-27 22:57 | 40.03688 | 19.78069 | 17672 ft | 412 kts | 160° |
| 2026-04-27 22:57 | 40.00992 | 19.79329 | 17330 ft | 410 kts | 160° |
| 2026-04-27 22:57 | 39.98312 | 19.80580 | 16901 ft | 407 kts | 160° |
| 2026-04-27 22:57 | 39.95649 | 19.81821 | 16423 ft | 404 kts | 160° |
| 2026-04-27 22:58 | 39.93026 | 19.83044 | 15935 ft | 401 kts | 160° |
| 2026-04-27 22:58 | 39.90393 | 19.84270 | 15517 ft | 395 kts | 160° |
| 2026-04-27 22:58 | 39.87874 | 19.85491 | 15331 ft | 382 kts | 159° |
| 2026-04-27 22:58 | 39.85400 | 19.86744 | 15146 ft | 370 kts | 159° |
| 2026-04-27 22:59 | 39.83051 | 19.87939 | 14969 ft | 359 kts | 159° |
| 2026-04-27 22:59 | 39.80617 | 19.88723 | 14463 ft | 357 kts | 176° |
| 2026-04-27 22:59 | 39.78194 | 19.88362 | 13985 ft | 354 kts | 198° |
| 2026-04-27 22:59 | 39.76054 | 19.86894 | 13619 ft | 346 kts | 220° |
| 2026-04-27 23:00 | 39.73549 | 19.81799 | 12911 ft | 335 kts | 252° |
| 2026-04-27 23:00 | 39.72840 | 19.78920 | 12499 ft | 333 kts | 252° |
| 2026-04-27 23:00 | 39.72039 | 19.76106 | 12075 ft | 331 kts | 246° |
| 2026-04-27 23:01 | 39.70979 | 19.73486 | 11679 ft | 329 kts | 238° |
| 2026-04-27 23:01 | 39.69651 | 19.71108 | 11261 ft | 327 kts | 230° |
| 2026-04-27 23:01 | 39.68095 | 19.68943 | 10845 ft | 324 kts | 224° |
| 2026-04-27 23:01 | 39.66410 | 19.67036 | 10467 ft | 321 kts | 218° |
| 2026-04-27 23:02 | 39.64652 | 19.65368 | 10329 ft | 309 kts | 214° |
| 2026-04-27 23:02 | 39.62848 | 19.63902 | 10199 ft | 297 kts | 210° |
| 2026-04-27 23:02 | 39.61066 | 19.62655 | 10071 ft | 286 kts | 207° |
| 2026-04-27 23:02 | 39.59279 | 19.61574 | 9717 ft | 284 kts | 204° |
| 2026-04-27 23:03 | 39.57431 | 19.60618 | 9335 ft | 284 kts | 201° |
| 2026-04-27 23:03 | 39.55558 | 19.59798 | 8978 ft | 282 kts | 197° |
| 2026-04-27 23:03 | 39.53670 | 19.59113 | 8641 ft | 279 kts | 194° |
| 2026-04-27 23:03 | 39.51771 | 19.58564 | 8313 ft | 277 kts | 191° |
| 2026-04-27 23:04 | 39.49880 | 19.58234 | 7981 ft | 274 kts | 182° |
| 2026-04-27 23:04 | 39.47979 | 19.58353 | 7649 ft | 272 kts | 171° |
| 2026-04-27 23:04 | 39.46166 | 19.58929 | 7310 ft | 270 kts | 160° |
| 2026-04-27 23:04 | 39.44456 | 19.59946 | 6971 ft | 269 kts | 149° |
| 2026-04-27 23:05 | 39.42952 | 19.61335 | 6651 ft | 266 kts | 139° |
| 2026-04-27 23:05 | 39.41871 | 19.63272 | 6284 ft | 265 kts | 109° |
| 2026-04-27 23:05 | 39.41399 | 19.65556 | 5973 ft | 263 kts | 105° |
| 2026-04-27 23:05 | 39.40982 | 19.67860 | 5645 ft | 262 kts | 101° |
| 2026-04-27 23:06 | 39.40715 | 19.70162 | 5332 ft | 261 kts | 96° |
| 2026-04-27 23:06 | 39.40627 | 19.72485 | 5013 ft | 260 kts | 90° |
| 2026-04-27 23:06 | 39.40724 | 19.74811 | 4687 ft | 259 kts | 84° |
| 2026-04-27 23:06 | 39.41005 | 19.77109 | 4369 ft | 258 kts | 78° |
| 2026-04-27 23:07 | 39.41460 | 19.79339 | 4058 ft | 256 kts | 72° |
| 2026-04-27 23:07 | 39.42052 | 19.81502 | 3745 ft | 255 kts | 70° |
| 2026-04-27 23:07 | 39.42674 | 19.83670 | 3428 ft | 253 kts | 70° |
| 2026-04-27 23:07 | 39.43263 | 19.85719 | 3348 ft | 234 kts | 70° |
| 2026-04-27 23:08 | 39.43811 | 19.87627 | 3354 ft | 218 kts | 70° |
| 2026-04-27 23:08 | 39.44309 | 19.89374 | 3357 ft | 197 kts | 70° |
| 2026-04-27 23:08 | 39.44764 | 19.90975 | 3234 ft | 182 kts | 70° |
| 2026-04-27 23:08 | 39.45179 | 19.92438 | 3131 ft | 167 kts | 70° |
| 2026-04-27 23:09 | 39.45573 | 19.93811 | 3041 ft | 160 kts | 67° |
| 2026-04-27 23:09 | 39.46262 | 19.94884 | 2888 ft | 159 kts | 22° |
| 2026-04-27 23:09 | 39.47360 | 19.94980 | 2937 ft | 160 kts | 348° |
| 2026-04-27 23:09 | 39.48392 | 19.94559 | 2893 ft | 151 kts | 342° |
| 2026-04-27 23:10 | 39.49361 | 19.94036 | 2582 ft | 149 kts | 334° |
| 2026-04-27 23:10 | 39.50286 | 19.93489 | 2203 ft | 146 kts | 344° |
| 2026-04-27 23:10 | 39.51285 | 19.93274 | 1732 ft | 148 kts | 358° |
| 2026-04-27 23:10 | 39.52293 | 19.93155 | 1503 ft | 144 kts | 353° |
| 2026-04-27 23:11 | 39.53303 | 19.92985 | 1302 ft | 145 kts | 353° |
| 2026-04-27 23:11 | 39.54282 | 19.92746 | 1065 ft | 143 kts | 348° |
| 2026-04-27 23:11 | 39.55263 | 19.92483 | 943 ft | 144 kts | 349° |
| 2026-04-27 23:11 | 39.56247 | 19.92239 | 700 ft | 143 kts | 348° |
| 2026-04-27 23:12 | 39.57219 | 19.91966 | 450 ft | 142 kts | 349° |
| 2026-04-27 23:12 | 39.58187 | 19.91728 | 299 ft | 142 kts | 348° |
| 2026-04-27 23:12 | 39.59168 | 19.91484 | 45 ft | 141 kts | 349° |
| 2026-04-27 23:12 | 39.60066 | 19.91256 | 6 ft | 101 kts | 348° |
| 2026-04-27 23:13 | 39.60267 | 19.91201 | 6 ft | 0 kts | 348° |
| 2026-04-27 23:13 | 39.60280 | 19.91198 | 6 ft | 5 kts | 348° |
| 2026-04-27 23:13 | 39.60346 | 19.91180 | 6 ft | 14 kts | 348° |
| 2026-04-27 23:14 | 39.60454 | 19.91150 | 5 ft | 12 kts | 348° |
| 2026-04-27 23:14 | 39.60559 | 19.91180 | 6 ft | 11 kts | 31° |
| 2026-04-27 23:14 | 39.60612 | 19.91259 | 6 ft | 8 kts | 60° |
| 2026-04-27 23:14 | 39.60624 | 19.91333 | 6 ft | 11 kts | 80° |
| 2026-04-27 23:15 | 39.60630 | 19.91372 | 6 ft | 0 kts | 78° |
| 2026-04-27 23:18 | 39.60630 | 19.91371 | 6 ft | 0 kts | 78° |